Time;durP1;ratioP1;P1;durP2;ratioP2;P2;SDS_P1;SDS_P2;PMS_P1;PMS_P2;Temp;Humidity;BMP_temperature;BMP_pressure;BME280_temperature;BME280_humidity;BME280_pressure;Samples;Min_cycle;Max_cycle;Signal;HPM_P1;HPM_P2
2022/11/24 00:01:29;;;;;;;5.57;1.00;;;9.70;99.90;;;;;;5030719;28;20032;-62
2022/11/24 00:04:01;;;;;;;5.95;1.35;;;9.80;99.90;;;;;;5011440;28;20056;-63
2022/11/24 00:06:28;;;;;;;5.57;1.00;;;9.70;99.90;;;;;;5038328;28;20033;-62
2022/11/24 00:08:54;;;;;;;7.45;1.02;;;9.60;99.90;;;;;;5033379;28;20120;-63
2022/11/24 00:11:26;;;;;;;1.95;0.60;;;9.40;99.90;;;;;;5034859;28;20018;-63
2022/11/24 00:13:53;;;;;;;3.45;0.73;;;9.40;99.90;;;;;;5024499;28;20093;-63
2022/11/24 00:16:21;;;;;;;3.80;0.50;;;9.40;99.90;;;;;;5052563;28;20049;-63
2022/11/24 00:18:49;;;;;;;2.63;0.63;;;9.40;99.90;;;;;;5059423;28;20365;-63
2022/11/24 00:21:17;;;;;;;6.20;1.23;;;9.30;99.90;;;;;;5059156;28;20082;-61
2022/11/24 00:23:43;;;;;;;8.38;0.80;;;9.20;99.90;;;;;;5054742;28;20071;-64
2022/11/24 00:26:12;;;;;;;7.18;0.88;;;9.20;99.90;;;;;;5061750;28;20025;-64
2022/11/24 00:28:39;;;;;;;8.68;2.38;;;9.00;99.90;;;;;;5056209;28;20502;-63
2022/11/24 00:31:26;;;;;;;4.80;0.65;;;8.90;99.90;;;;;;5048774;28;20441;-63
2022/11/24 00:33:55;;;;;;;6.03;0.95;;;9.00;99.90;;;;;;5050349;28;20107;-64
2022/11/24 00:36:23;;;;;;;3.65;0.77;;;9.00;99.90;;;;;;5059013;28;20090;-61
2022/11/24 00:38:56;;;;;;;9.05;0.68;;;9.10;99.90;;;;;;5058584;28;20070;-64
2022/11/24 00:41:24;;;;;;;5.00;1.08;;;9.20;99.90;;;;;;5059251;28;20024;-62
2022/11/24 00:43:51;;;;;;;13.00;1.35;;;9.20;99.90;;;;;;5055052;28;20047;-63
2022/11/24 00:46:18;;;;;;;3.92;1.77;;;9.10;99.90;;;;;;5055528;28;20449;-64
2022/11/24 00:48:44;;;;;;;7.25;1.20;;;9.20;99.90;;;;;;5059164;28;20040;-61
2022/11/24 00:51:12;;;;;;;5.55;0.90;;;9.20;99.90;;;;;;5045377;28;20043;-64
2022/11/24 00:53:38;;;;;;;6.40;0.73;;;9.10;99.90;;;;;;5048139;28;20067;-62
2022/11/24 00:56:04;;;;;;;10.77;2.10;;;9.00;99.90;;;;;;5056730;28;20108;-62
2022/11/24 00:58:30;;;;;;;5.88;0.60;;;8.80;99.90;;;;;;5067224;28;20044;-61
2022/11/24 01:01:07;;;;;;;4.70;0.80;;;8.80;99.90;;;;;;5060336;28;20032;-63
2022/11/24 01:03:33;;;;;;;7.95;1.77;;;8.80;99.90;;;;;;5053888;28;20030;-62
2022/11/24 01:06:13;;;;;;;4.57;1.20;;;8.70;99.90;;;;;;5062410;28;20629;-62
2022/11/24 01:08:40;;;;;;;4.07;0.50;;;8.80;99.90;;;;;;5064904;28;20376;-62
2022/11/24 01:11:12;;;;;;;6.35;0.80;;;8.90;99.90;;;;;;5058643;28;20028;-62
2022/11/24 01:13:39;;;;;;;4.60;1.02;;;8.90;99.90;;;;;;5053132;28;20067;-62
2022/11/24 01:16:06;;;;;;;4.28;0.60;;;9.00;99.90;;;;;;5060328;28;20028;-62
2022/11/24 01:18:31;;;;;;;6.78;1.27;;;8.90;99.90;;;;;;5065149;28;20110;-62
2022/11/24 01:20:57;;;;;;;5.82;0.60;;;8.90;99.90;;;;;;5069359;28;20067;-62
2022/11/24 01:23:23;;;;;;;8.68;1.00;;;8.80;99.90;;;;;;5064510;28;20064;-63
2022/11/24 01:25:49;;;;;;;4.78;0.90;;;8.70;99.90;;;;;;5040739;28;20036;-62
2022/11/24 01:28:17;;;;;;;10.38;1.15;;;8.70;99.90;;;;;;5056744;28;20027;-62
2022/11/24 01:30:43;;;;;;;5.78;1.20;;;8.50;99.90;;;;;;5053496;28;20021;-62
2022/11/24 01:33:08;;;;;;;5.13;0.93;;;8.40;99.90;;;;;;5059215;28;20029;-63
2022/11/24 01:35:35;;;;;;;9.65;1.13;;;8.50;99.90;;;;;;5058160;28;20111;-62
2022/11/24 01:38:01;;;;;;;6.55;0.52;;;8.50;99.90;;;;;;5069119;28;20468;-63
2022/11/24 01:40:27;;;;;;;7.47;1.00;;;8.50;99.90;;;;;;5067082;28;20115;-63
2022/11/24 01:42:53;;;;;;;6.57;0.90;;;8.40;99.90;;;;;;5060077;28;20104;-61
2022/11/24 01:45:22;;;;;;;5.20;0.50;;;8.50;99.90;;;;;;5048294;28;20091;-61
2022/11/24 01:47:48;;;;;;;7.85;0.93;;;8.40;99.90;;;;;;5062073;28;20021;-61
2022/11/24 01:50:15;;;;;;;8.02;1.58;;;8.30;99.90;;;;;;5059276;28;20476;-62
2022/11/24 01:52:47;;;;;;;4.03;0.50;;;8.30;99.90;;;;;;5059475;28;20109;-62
2022/11/24 01:55:20;;;;;;;9.80;1.02;;;8.30;99.90;;;;;;5052073;28;20100;-61
2022/11/24 01:57:57;;;;;;;4.85;0.60;;;8.30;99.90;;;;;;5063518;28;20383;-61
2022/11/24 02:00:23;;;;;;;3.58;0.55;;;8.30;99.90;;;;;;5052318;28;20386;-62
2022/11/24 02:02:49;;;;;;;5.65;1.00;;;8.30;99.90;;;;;;5056884;28;20448;-61
2022/11/24 02:05:29;;;;;;;2.70;1.10;;;8.30;99.90;;;;;;5055002;28;20044;-61
2022/11/24 02:07:58;;;;;;;5.45;0.80;;;8.40;99.90;;;;;;5051982;28;20062;-62
2022/11/24 02:10:24;;;;;;;4.13;0.68;;;8.40;99.90;;;;;;5054230;28;20024;-61
2022/11/24 02:12:53;;;;;;;10.65;1.10;;;8.30;99.90;;;;;;5063406;28;20033;-62
2022/11/24 02:15:21;;;;;;;7.35;1.30;;;8.40;99.90;;;;;;5063428;28;20020;-61
2022/11/24 02:17:47;;;;;;;4.40;0.70;;;8.40;99.90;;;;;;5066460;28;20032;-62
2022/11/24 02:20:13;;;;;;;5.68;0.95;;;8.40;99.90;;;;;;5055572;28;20085;-61
2022/11/24 02:22:56;;;;;;;6.70;1.02;;;8.30;99.90;;;;;;5056973;28;20463;-63
2022/11/24 02:25:28;;;;;;;8.27;2.78;;;8.30;99.90;;;;;;5057007;28;20029;-63
2022/11/24 02:27:55;;;;;;;13.48;1.58;;;8.30;99.90;;;;;;5047352;28;20025;-63
2022/11/24 02:30:21;;;;;;;5.45;1.30;;;8.20;99.90;;;;;;5059251;28;20115;-63
2022/11/24 02:32:48;;;;;;;8.15;0.90;;;8.20;99.90;;;;;;5053587;28;20064;-63
2022/11/24 02:35:16;;;;;;;10.15;1.65;;;8.30;99.90;;;;;;5059250;28;20036;-63
2022/11/24 02:37:41;;;;;;;6.85;1.30;;;8.10;99.90;;;;;;5058644;28;20052;-63
2022/11/24 02:40:08;;;;;;;4.32;0.73;;;8.00;99.90;;;;;;5062387;28;20488;-63
2022/11/24 02:42:39;;;;;;;14.70;2.08;;;7.90;99.90;;;;;;5062102;28;20024;-63
2022/11/24 02:45:08;;;;;;;8.98;0.90;;;7.80;99.90;;;;;;5049329;28;20047;-63
2022/11/24 02:47:33;;;;;;;6.22;1.00;;;7.90;99.90;;;;;;5061433;28;20039;-62
2022/11/24 02:49:59;;;;;;;6.93;1.02;;;8.00;99.90;;;;;;5056795;28;20112;-62
2022/11/24 02:52:25;;;;;;;11.43;1.48;;;8.00;99.90;;;;;;5061328;28;20059;-62
2022/11/24 02:54:54;;;;;;;7.05;2.03;;;7.90;99.90;;;;;;5058290;28;20052;-63
2022/11/24 02:57:21;;;;;;;12.63;2.03;;;7.90;99.90;;;;;;5057310;28;20020;-63
2022/11/24 02:59:47;;;;;;;10.27;1.15;;;7.80;99.90;;;;;;5048179;28;20039;-63
2022/11/24 03:02:13;;;;;;;13.00;1.80;;;7.80;99.90;;;;;;5058921;28;20028;-63
2022/11/24 03:04:39;;;;;;;11.95;1.60;;;7.90;99.90;;;;;;5064252;28;20051;-63
2022/11/24 03:07:08;;;;;;;11.32;2.15;;;8.00;99.90;;;;;;5055961;28;20468;-62
2022/11/24 03:09:36;;;;;;;15.82;1.77;;;8.00;99.90;;;;;;5042244;28;20484;-62
2022/11/24 03:12:02;;;;;;;14.93;2.00;;;8.10;99.90;;;;;;5058646;28;20111;-62
2022/11/24 03:14:28;;;;;;;10.05;1.27;;;8.10;99.90;;;;;;5051412;28;20064;-62
2022/11/24 03:16:54;;;;;;;12.30;2.08;;;8.10;99.90;;;;;;5059699;28;20076;-62
2022/11/24 03:19:20;;;;;;;14.95;2.13;;;8.10;99.90;;;;;;5065073;28;20486;-62
2022/11/24 03:21:46;;;;;;;12.88;2.25;;;8.20;99.90;;;;;;5059641;28;20491;-62
2022/11/24 03:24:12;;;;;;;9.38;1.83;;;8.20;99.90;;;;;;5049915;28;20079;-62
2022/11/24 03:26:38;;;;;;;11.57;1.73;;;8.40;99.90;;;;;;5053987;28;20023;-62
2022/11/24 03:29:03;;;;;;;11.43;1.63;;;8.20;99.90;;;;;;5058495;28;20029;-62
2022/11/24 03:31:29;;;;;;;10.02;1.52;;;8.10;99.90;;;;;;5050955;28;20037;-62
2022/11/24 03:33:55;;;;;;;9.48;1.48;;;8.20;99.90;;;;;;5041158;28;20087;-62
2022/11/24 03:36:21;;;;;;;20.55;3.42;;;8.30;99.90;;;;;;5036301;28;20156;-61
2022/11/24 03:38:47;;;;;;;9.25;1.48;;;8.40;99.90;;;;;;5054939;28;20047;-64
2022/11/24 03:41:12;;;;;;;8.00;1.52;;;8.40;99.90;;;;;;5053266;28;20416;-62
2022/11/24 03:43:38;;;;;;;11.52;2.22;;;8.40;99.90;;;;;;5064041;28;20040;-62
2022/11/24 03:46:04;;;;;;;12.02;1.67;;;8.20;99.90;;;;;;5048123;28;20499;-63
2022/11/24 03:48:30;;;;;;;12.13;1.13;;;8.20;99.90;;;;;;5056120;28;20029;-63
2022/11/24 03:50:58;;;;;;;14.60;1.73;;;8.20;99.90;;;;;;5052000;28;20029;-62
2022/11/24 03:53:25;;;;;;;15.95;1.67;;;8.20;99.90;;;;;;5074768;28;20594;-63
2022/11/24 03:55:53;;;;;;;11.43;2.28;;;8.20;99.90;;;;;;5052745;28;20025;-62
2022/11/24 03:58:20;;;;;;;13.23;2.08;;;8.30;99.90;;;;;;5047523;28;20025;-63
2022/11/24 04:00:48;;;;;;;9.20;1.77;;;8.50;99.90;;;;;;5056225;28;20513;-63
2022/11/24 04:03:14;;;;;;;11.00;2.08;;;8.30;99.90;;;;;;5049711;28;20397;-63
2022/11/24 04:05:40;;;;;;;10.63;1.65;;;8.10;99.90;;;;;;5057282;28;20025;-62
2022/11/24 04:08:06;;;;;;;14.57;1.65;;;8.20;99.90;;;;;;5043236;28;20021;-62
2022/11/24 04:10:35;;;;;;;14.57;2.25;;;8.10;99.90;;;;;;5043934;28;20036;-62
2022/11/24 04:13:01;;;;;;;11.95;1.60;;;8.10;99.90;;;;;;5050800;28;20025;-62
2022/11/24 04:15:27;;;;;;;17.13;2.97;;;8.00;99.90;;;;;;5052901;28;20032;-62
2022/11/24 04:17:55;;;;;;;12.65;2.10;;;8.00;99.90;;;;;;5055686;28;20045;-62
2022/11/24 04:20:21;;;;;;;13.77;1.63;;;8.00;99.90;;;;;;5064552;28;20028;-62
2022/11/24 04:22:49;;;;;;;18.92;2.33;;;7.90;99.90;;;;;;5063938;28;20152;-62
2022/11/24 04:25:16;;;;;;;13.02;1.85;;;7.70;99.90;;;;;;5053066;28;20029;-62
2022/11/24 04:27:42;;;;;;;8.48;2.13;;;7.70;99.90;;;;;;5059691;28;20073;-62
2022/11/24 04:30:08;;;;;;;20.23;2.65;;;7.60;99.90;;;;;;5054961;28;20029;-61
2022/11/24 04:32:35;;;;;;;13.20;1.38;;;7.60;99.90;;;;;;5061596;28;20491;-62
2022/11/24 04:35:01;;;;;;;13.43;2.13;;;7.50;99.90;;;;;;5053709;28;20041;-62
2022/11/24 04:37:27;;;;;;;10.52;1.90;;;7.50;99.90;;;;;;5048216;28;20131;-62
2022/11/24 04:39:54;;;;;;;16.15;2.10;;;7.50;99.90;;;;;;5059650;28;20021;-62
2022/11/24 04:42:20;;;;;;;9.05;1.77;;;7.50;99.90;;;;;;5052485;22;20149;-61
2022/11/24 04:44:46;;;;;;;11.98;1.48;;;7.50;99.90;;;;;;5024867;28;20042;-62
2022/11/24 04:47:20;;;;;;;12.43;2.45;;;7.50;99.90;;;;;;5010586;28;20564;-63
2022/11/24 04:49:48;;;;;;;11.18;2.28;;;7.40;99.90;;;;;;5013859;28;20030;-62
2022/11/24 04:52:14;;;;;;;16.45;2.17;;;7.40;99.90;;;;;;5014479;28;20083;-62
2022/11/24 04:54:40;;;;;;;13.73;2.35;;;7.30;99.90;;;;;;5028877;28;20025;-61
2022/11/24 04:57:06;;;;;;;17.23;2.22;;;7.30;99.90;;;;;;5017166;28;20053;-62
2022/11/24 04:59:32;;;;;;;13.48;1.83;;;7.20;99.90;;;;;;5014839;28;20117;-62
2022/11/24 05:01:57;;;;;;;14.95;2.10;;;7.00;99.90;;;;;;5011181;28;20145;-61
2022/11/24 05:04:23;;;;;;;18.38;2.47;;;7.00;99.90;;;;;;5025421;28;20440;-61
2022/11/24 05:06:49;;;;;;;13.82;1.83;;;7.00;99.90;;;;;;5017595;28;20440;-62
2022/11/24 05:09:16;;;;;;;13.25;2.50;;;7.00;99.90;;;;;;5012930;28;20076;-62
2022/11/24 05:11:42;;;;;;;16.27;2.58;;;7.10;99.90;;;;;;5015501;28;20025;-62
2022/11/24 05:14:09;;;;;;;15.25;2.10;;;7.20;99.90;;;;;;5011266;28;20033;-62
2022/11/24 05:16:34;;;;;;;14.77;2.50;;;7.30;99.90;;;;;;5011498;28;20049;-62
2022/11/24 05:19:00;;;;;;;15.90;2.75;;;7.30;99.90;;;;;;5021389;28;20485;-62
2022/11/24 05:21:27;;;;;;;17.35;2.00;;;7.30;99.90;;;;;;5013488;28;20026;-62
2022/11/24 05:23:53;;;;;;;14.32;2.38;;;7.20;99.90;;;;;;5023262;28;20038;-63
2022/11/24 05:26:18;;;;;;;12.63;2.35;;;7.20;99.90;;;;;;5022152;28;20021;-61
2022/11/24 05:28:44;;;;;;;17.60;2.72;;;7.20;99.90;;;;;;5019630;28;20056;-62
2022/11/24 05:31:10;;;;;;;13.10;2.40;;;7.20;99.90;;;;;;5013467;28;20029;-61
2022/11/24 05:33:37;;;;;;;16.77;2.28;;;7.30;99.90;;;;;;5023128;28;20366;-61
2022/11/24 05:36:04;;;;;;;19.63;2.15;;;7.40;99.90;;;;;;5010007;28;20453;-62
2022/11/24 05:38:31;;;;;;;17.85;1.98;;;7.40;99.90;;;;;;5013097;28;20053;-62
2022/11/24 05:41:04;;;;;;;10.98;2.70;;;7.40;99.90;;;;;;5015343;28;20109;-63
2022/11/24 05:43:31;;;;;;;15.43;3.40;;;7.40;99.90;;;;;;5011002;28;20077;-63
2022/11/24 05:46:00;;;;;;;14.15;2.28;;;7.30;99.90;;;;;;5008921;28;20034;-62
2022/11/24 05:48:27;;;;;;;19.85;3.22;;;7.30;99.90;;;;;;5009585;28;20029;-63
2022/11/24 05:50:57;;;;;;;15.30;2.90;;;7.40;99.90;;;;;;5009089;28;20085;-61
2022/11/24 05:53:24;;;;;;;14.93;2.05;;;7.50;99.90;;;;;;5016692;28;20112;-62
2022/11/24 05:55:50;;;;;;;12.57;1.92;;;7.50;99.90;;;;;;5012331;28;20045;-62
2022/11/24 05:58:16;;;;;;;18.17;2.33;;;7.50;99.90;;;;;;5017187;28;20477;-62
2022/11/24 06:00:42;;;;;;;14.90;1.65;;;7.60;99.90;;;;;;5012602;28;20089;-62
2022/11/24 06:03:09;;;;;;;11.45;1.85;;;7.60;99.90;;;;;;5017631;28;20547;-63
2022/11/24 06:05:35;;;;;;;11.70;1.98;;;7.50;99.90;;;;;;5016624;28;20374;-62
2022/11/24 06:08:01;;;;;;;12.80;2.50;;;7.70;99.90;;;;;;5012785;28;20033;-62
2022/11/24 06:10:27;;;;;;;9.75;2.53;;;7.60;99.90;;;;;;5023153;28;20036;-63
2022/11/24 06:12:53;;;;;;;16.40;2.53;;;7.40;99.90;;;;;;5010155;28;20028;-62
2022/11/24 06:15:19;;;;;;;18.38;2.42;;;7.20;99.90;;;;;;5021374;28;20487;-62
2022/11/24 06:17:55;;;;;;;8.20;1.77;;;7.00;99.90;;;;;;5021494;28;20022;-62
2022/11/24 06:20:22;;;;;;;16.25;2.15;;;6.70;99.90;;;;;;5012636;28;20099;-62
2022/11/24 06:22:47;;;;;;;9.40;2.33;;;6.60;99.90;;;;;;5014335;28;20045;-62
2022/11/24 06:25:15;;;;;;;14.77;1.98;;;6.60;99.90;;;;;;5009575;28;20049;-62
2022/11/24 06:27:40;;;;;;;11.10;2.22;;;6.70;99.90;;;;;;5022613;28;20568;-61
2022/11/24 06:30:07;;;;;;;14.13;2.30;;;6.70;99.90;;;;;;5018349;28;20116;-62
2022/11/24 06:32:32;;;;;;;11.25;2.08;;;6.90;99.90;;;;;;5016127;28;20446;-62
2022/11/24 06:34:59;;;;;;;10.93;2.03;;;6.80;99.90;;;;;;5011766;28;20037;-62
2022/11/24 06:37:25;;;;;;;13.27;1.92;;;6.80;99.90;;;;;;5023493;28;20034;-62
2022/11/24 06:39:51;;;;;;;15.88;2.15;;;6.90;99.90;;;;;;5020110;28;20029;-61
2022/11/24 06:42:17;;;;;;;13.00;2.80;;;6.80;99.90;;;;;;5010133;28;20046;-62
2022/11/24 06:44:46;;;;;;;14.50;1.60;;;6.70;99.90;;;;;;5020470;28;20068;-62
2022/11/24 06:47:12;;;;;;;20.08;1.88;;;6.70;99.90;;;;;;5009316;28;20523;-62
2022/11/24 06:49:38;;;;;;;16.08;2.30;;;7.00;99.90;;;;;;5001541;28;20533;-62
2022/11/24 06:52:04;;;;;;;16.50;2.22;;;7.10;99.90;;;;;;5012625;28;20117;-62
2022/11/24 06:54:30;;;;;;;23.60;2.88;;;7.10;99.90;;;;;;5002411;28;20034;-61
2022/11/24 06:56:57;;;;;;;23.05;2.63;;;7.10;99.90;;;;;;5009816;28;20049;-62
2022/11/24 06:59:23;;;;;;;17.15;3.20;;;7.30;99.90;;;;;;5005918;28;20030;-63
2022/11/24 07:01:49;;;;;;;26.38;3.40;;;7.60;99.90;;;;;;5009474;28;20113;-62
2022/11/24 07:04:15;;;;;;;19.38;3.67;;;7.70;99.90;;;;;;5006702;28;20117;-62
2022/11/24 07:06:42;;;;;;;16.98;2.83;;;7.90;99.90;;;;;;5007504;28;20024;-62
2022/11/24 07:09:10;;;;;;;28.10;3.70;;;8.00;99.90;;;;;;5015215;28;20030;-63
2022/11/24 07:11:36;;;;;;;22.10;4.05;;;8.30;99.90;;;;;;5013640;28;20037;-62
2022/11/24 07:14:03;;;;;;;25.60;2.35;;;8.50;99.90;;;;;;5015739;28;20473;-62
2022/11/24 07:16:29;;;;;;;23.23;3.40;;;8.60;99.90;;;;;;5014112;28;20164;-62
2022/11/24 07:18:56;;;;;;;16.42;2.58;;;8.50;99.90;;;;;;5010593;28;20462;-62
2022/11/24 07:21:23;;;;;;;23.55;5.30;;;8.70;99.90;;;;;;5026682;28;20036;-62
2022/11/24 07:23:50;;;;;;;19.10;3.10;;;9.10;99.90;;;;;;5017099;28;20057;-61
2022/11/24 07:26:16;;;;;;;14.35;2.72;;;9.10;99.90;;;;;;5017480;28;20029;-61
2022/11/24 07:28:42;;;;;;;19.70;3.60;;;9.20;99.90;;;;;;5018651;28;20026;-62
2022/11/24 07:31:10;;;;;;;20.45;2.92;;;9.40;99.90;;;;;;5014837;28;20393;-62
2022/11/24 07:33:37;;;;;;;22.13;3.15;;;9.40;99.90;;;;;;5013990;28;20029;-62
2022/11/24 07:36:05;;;;;;;29.88;4.78;;;9.50;99.90;;;;;;5015810;28;20064;-62
2022/11/24 07:38:31;;;;;;;13.38;3.08;;;9.60;99.90;;;;;;5010331;28;20100;-63
2022/11/24 07:41:06;;;;;;;24.02;2.97;;;9.90;99.90;;;;;;5020927;28;20036;-63
2022/11/24 07:43:33;;;;;;;22.02;3.83;;;9.90;99.90;;;;;;5010656;28;20045;-61
2022/11/24 07:46:00;;;;;;;14.55;3.20;;;9.90;99.90;;;;;;5009254;28;20069;-62
2022/11/24 07:48:26;;;;;;;19.05;2.85;;;9.80;99.90;;;;;;5009320;28;20184;-63
2022/11/24 07:50:53;;;;;;;19.40;3.38;;;9.90;99.90;;;;;;5020667;28;20018;-63
2022/11/24 07:53:19;;;;;;;17.10;3.25;;;10.00;99.90;;;;;;5008699;28;20482;-62
2022/11/24 07:56:00;;;;;;;15.68;3.50;;;10.00;99.90;;;;;;5021325;28;20022;-62
2022/11/24 07:58:28;;;;;;;23.20;3.67;;;10.10;99.90;;;;;;5006470;28;20057;-62
2022/11/24 08:00:54;;;;;;;28.88;3.88;;;10.10;99.90;;;;;;5009788;28;20032;-62
2022/11/24 08:03:21;;;;;;;27.42;3.97;;;10.20;99.90;;;;;;5009338;28;20022;-62
2022/11/24 08:05:57;;;;;;;16.38;2.75;;;10.30;99.90;;;;;;5009944;28;20033;-61
2022/11/24 08:08:27;;;;;;;14.52;3.10;;;10.30;99.90;;;;;;5010014;28;20065;-62
2022/11/24 08:10:57;;;;;;;24.65;2.88;;;10.40;99.90;;;;;;5010607;28;20830;-58
2022/11/24 08:13:22;;;;;;;28.42;2.95;;;10.60;99.90;;;;;;5006341;28;20026;-62
2022/11/24 08:15:48;;;;;;;12.40;3.40;;;10.90;99.90;;;;;;5013647;28;20025;-62
2022/11/24 08:18:14;;;;;;;15.30;2.95;;;11.10;99.90;;;;;;4999293;28;20122;-61
2022/11/24 08:20:40;;;;;;;20.52;2.55;;;11.20;99.90;;;;;;5009285;28;20542;-62
2022/11/24 08:23:06;;;;;;;25.92;4.57;;;11.30;99.90;;;;;;5010159;28;20034;-61
2022/11/24 08:25:32;;;;;;;24.73;3.38;;;11.40;99.90;;;;;;5008075;28;20038;-61
2022/11/24 08:27:59;;;;;;;18.33;2.85;;;11.50;99.90;;;;;;5004984;28;20148;-61
2022/11/24 08:30:25;;;;;;;21.67;3.38;;;11.70;99.90;;;;;;5009902;28;20022;-62
2022/11/24 08:32:51;;;;;;;25.88;4.00;;;11.70;99.90;;;;;;5011463;28;20018;-63
2022/11/24 08:35:17;;;;;;;22.67;3.95;;;11.80;99.90;;;;;;5009149;28;20025;-63
2022/11/24 08:37:43;;;;;;;20.23;4.18;;;11.80;99.90;;;;;;5002059;28;20023;-62
2022/11/24 08:40:10;;;;;;;28.58;4.43;;;11.80;99.90;;;;;;4999924;28;20032;-62
2022/11/24 08:42:35;;;;;;;21.90;3.50;;;11.80;99.90;;;;;;5010496;28;20049;-61
2022/11/24 08:45:01;;;;;;;25.98;3.30;;;11.80;99.90;;;;;;5011047;28;20042;-63
2022/11/24 08:47:27;;;;;;;24.35;3.17;;;11.80;99.90;;;;;;5013875;28;20477;-63
2022/11/24 08:49:53;;;;;;;16.80;2.80;;;11.70;99.90;;;;;;5015773;28;20044;-62
2022/11/24 08:52:19;;;;;;;26.42;3.92;;;11.60;99.90;;;;;;5014767;28;20073;-64
2022/11/24 08:54:44;;;;;;;22.88;3.63;;;11.70;99.90;;;;;;5011432;28;20355;-62
2022/11/24 08:57:13;;;;;;;24.63;4.25;;;11.70;99.90;;;;;;5014870;28;20042;-62
2022/11/24 08:59:39;;;;;;;22.58;3.97;;;11.80;99.90;;;;;;5018453;28;20315;-62
2022/11/24 09:02:05;;;;;;;25.13;5.22;;;11.90;99.90;;;;;;5015446;28;20041;-62
2022/11/24 09:04:31;;;;;;;24.20;3.47;;;12.00;99.90;;;;;;5009182;28;20034;-63
2022/11/24 09:06:57;;;;;;;18.30;3.30;;;12.00;99.90;;;;;;5006270;28;20470;-61
2022/11/24 09:09:23;;;;;;;21.38;4.28;;;12.00;99.90;;;;;;5011377;28;20029;-62
2022/11/24 09:11:49;;;;;;;23.80;4.10;;;12.00;99.90;;;;;;5009837;28;20531;-62
2022/11/24 09:14:15;;;;;;;27.23;4.30;;;12.00;99.90;;;;;;5012695;28;20247;-63
2022/11/24 09:16:40;;;;;;;28.25;3.63;;;12.00;99.90;;;;;;5018844;28;20108;-63
2022/11/24 09:19:07;;;;;;;27.17;3.45;;;12.00;99.90;;;;;;5008833;28;20034;-61
2022/11/24 09:21:36;;;;;;;29.30;4.93;;;12.00;99.90;;;;;;5014887;28;20018;-62
2022/11/24 09:24:03;;;;;;;18.08;4.90;;;12.10;99.90;;;;;;5008373;28;20493;-62
2022/11/24 09:26:31;;;;;;;30.38;4.72;;;12.20;99.90;;;;;;5012535;28;20083;-62
2022/11/24 09:28:58;;;;;;;26.67;3.28;;;12.20;99.90;;;;;;5006568;28;20022;-62
2022/11/24 09:31:27;;;;;;;23.90;4.22;;;12.20;99.90;;;;;;5016270;28;20022;-62
2022/11/24 09:33:53;;;;;;;26.30;4.05;;;12.20;99.90;;;;;;5009642;28;20026;-64
2022/11/24 09:36:20;;;;;;;32.47;5.90;;;12.20;99.90;;;;;;5010743;28;20058;-63
2022/11/24 09:38:46;;;;;;;15.05;3.30;;;12.30;99.90;;;;;;5018465;28;20542;-63
2022/11/24 09:41:39;;;;;;;25.20;3.60;;;12.20;99.90;;;;;;5014443;28;20030;-63
2022/11/24 09:44:23;;;;;;;20.92;4.95;;;12.20;99.90;;;;;;5007716;28;20076;-62
2022/11/24 09:47:22;;;;;;;27.30;3.78;;;12.30;99.90;;;;;;5011977;28;20029;-62
2022/11/24 09:50:04;;;;;;;19.13;3.67;;;12.20;99.90;;;;;;5009816;28;20474;-62
2022/11/24 09:52:37;;;;;;;30.90;6.03;;;12.30;99.90;;;;;;4998583;28;20034;-62
2022/11/24 09:55:15;;;;;;;29.35;4.88;;;12.30;99.90;;;;;;5008004;28;20033;-62
2022/11/24 09:57:42;;;;;;;20.90;3.25;;;12.40;99.90;;;;;;5012790;28;20106;-63
2022/11/24 10:00:13;;;;;;;22.50;3.90;;;12.50;99.90;;;;;;5019506;28;20053;-62
2022/11/24 10:02:39;;;;;;;26.52;4.80;;;12.50;99.90;;;;;;5011272;28;20022;-63
2022/11/24 10:05:05;;;;;;;21.05;4.00;;;12.50;99.90;;;;;;5006754;28;20642;-63
2022/11/24 10:08:03;;;;;;;25.13;5.38;;;12.50;99.90;;;;;;5025915;28;20090;-63
2022/11/24 10:10:58;;;;;;;16.33;2.92;;;12.60;99.90;;;;;;5013423;28;20034;-61
2022/11/24 10:13:44;;;;;;;27.45;5.15;;;12.60;99.90;;;;;;5007637;28;20434;-62
2022/11/24 10:16:50;;;;;;;29.95;5.63;;;12.70;99.90;;;;;;5010734;28;20038;-62
2022/11/24 10:19:43;;;;;;;20.90;3.83;;;12.80;99.90;;;;;;5012101;28;20539;-62
2022/11/24 10:22:47;;;;;;;21.70;3.40;;;12.90;99.90;;;;;;5009695;28;20576;-62
2022/11/24 10:25:21;;;;;;;22.98;3.47;;;13.00;99.90;;;;;;5009775;28;20588;-62
2022/11/24 10:27:54;;;;;;;21.55;2.92;;;13.20;99.90;;;;;;5014403;28;20438;-62
2022/11/24 10:30:22;;;;;;;21.33;3.33;;;13.30;99.90;;;;;;5012591;28;20030;-63
2022/11/24 10:33:01;;;;;;;20.52;4.05;;;13.40;99.90;;;;;;5012402;28;20046;-61
2022/11/24 10:35:37;;;;;;;20.27;3.20;;;13.40;99.90;;;;;;5009318;28;20030;-62
2022/11/24 10:38:18;;;;;;;18.05;3.88;;;13.30;99.90;;;;;;5005612;28;20033;-62
2022/11/24 10:41:02;;;;;;;20.10;3.28;;;13.10;99.90;;;;;;5012852;28;20113;-61
2022/11/24 10:43:28;;;;;;;15.52;2.70;;;13.00;99.90;;;;;;5009869;28;20053;-61
2022/11/24 10:46:04;;;;;;;15.77;3.03;;;12.90;99.90;;;;;;5016208;28;20033;-61
2022/11/24 10:48:42;;;;;;;22.98;3.55;;;12.90;99.90;;;;;;5015638;28;20030;-61
2022/11/24 10:51:40;;;;;;;24.70;3.78;;;12.90;99.90;;;;;;5000273;28;20029;-62
2022/11/24 10:54:16;;;;;;;16.17;3.88;;;13.10;99.90;;;;;;5015686;28;20046;-63
2022/11/24 10:56:44;;;;;;;24.83;3.95;;;13.30;99.90;;;;;;5010941;28;20030;-63
2022/11/24 10:59:30;;;;;;;15.38;2.72;;;13.40;99.90;;;;;;5013693;28;20040;-61
2022/11/24 11:01:57;;;;;;;31.83;5.15;;;13.40;99.90;;;;;;5010001;28;20096;-62
2022/11/24 11:04:28;;;;;;;28.65;7.32;;;13.40;99.90;;;;;;5013270;28;20179;-62
2022/11/24 11:07:22;;;;;;;21.75;4.38;;;13.50;99.90;;;;;;5010996;28;20033;-62
2022/11/24 11:09:48;;;;;;;25.70;5.07;;;13.80;99.90;;;;;;5013699;28;20040;-62
2022/11/24 11:12:30;;;;;;;23.77;3.92;;;14.00;99.90;;;;;;5007890;28;20145;-61
2022/11/24 11:15:03;;;;;;;;;;;14.30;99.90;;;;;;5009166;28;20076;-62
2022/11/24 11:17:35;;;;;;;19.33;3.30;;;14.40;99.90;;;;;;5008940;28;20320;-63
2022/11/24 11:20:16;;;;;;;23.25;4.25;;;14.70;99.90;;;;;;5004282;28;20401;-63
2022/11/24 11:22:44;;;;;;;19.33;3.30;;;14.90;99.90;;;;;;5011395;28;20358;-63
2022/11/24 11:25:09;;;;;;;14.57;3.53;;;14.90;99.90;;;;;;5006248;28;20034;-68
2022/11/24 11:27:36;;;;;;;25.92;6.45;;;15.00;99.90;;;;;;5013061;28;20022;-62
2022/11/24 11:30:20;;;;;;;19.13;5.35;;;15.20;99.90;;;;;;5006863;28;20064;-62
2022/11/24 11:32:59;;;;;;;28.77;3.58;;;15.40;99.90;;;;;;5008594;28;20068;-61
2022/11/24 11:35:35;;;;;;;20.83;4.50;;;15.00;99.90;;;;;;5002131;28;20040;-62
2022/11/24 11:38:05;;;;;;;21.23;3.58;;;14.40;99.90;;;;;;5012646;28;20041;-61
2022/11/24 11:40:31;;;;;;;19.00;3.47;;;14.00;99.90;;;;;;5010863;28;20079;-62
2022/11/24 11:42:57;;;;;;;15.23;2.83;;;13.70;99.90;;;;;;5013530;28;20069;-62
2022/11/24 11:45:32;;;;;;;18.40;3.50;;;13.60;99.90;;;;;;5010892;28;20073;-62
2022/11/24 11:48:01;;;;;;;18.77;2.67;;;13.40;99.90;;;;;;5007184;28;20106;-62
2022/11/24 11:50:57;;;;;;;18.63;3.38;;;13.40;99.90;;;;;;5014501;28;20120;-62
2022/11/24 11:53:32;;;;;;;18.23;3.40;;;13.50;99.90;;;;;;5007410;28;20076;-62
2022/11/24 11:56:19;;;;;;;20.92;4.20;;;13.50;99.90;;;;;;5013315;28;20033;-61
2022/11/24 11:59:15;;;;;;;22.63;3.75;;;13.50;99.90;;;;;;5027110;28;20397;-61
2022/11/24 12:02:10;;;;;;;15.98;2.80;;;13.30;99.90;;;;;;5011091;28;20037;-61
2022/11/24 12:04:56;;;;;;;22.95;4.03;;;13.40;99.90;;;;;;5009969;28;20374;-62
2022/11/24 12:08:00;;;;;;;17.05;3.60;;;13.60;99.90;;;;;;5010376;28;20371;-62
2022/11/24 12:11:01;;;;;;;18.65;4.13;;;13.70;99.90;;;;;;4987025;28;20089;-62
2022/11/24 12:13:42;;;;;;;13.40;2.45;;;13.80;99.90;;;;;;4978333;28;20049;-61
2022/11/24 12:16:33;;;;;;;22.15;3.13;;;14.20;99.90;;;;;;4985405;28;20033;-61
2022/11/24 12:19:16;;;;;;;21.17;3.53;;;14.40;99.90;;;;;;4985332;28;20026;-60
2022/11/24 12:22:02;;;;;;;15.45;3.17;;;13.90;99.90;;;;;;4987056;28;20034;-61
2022/11/24 12:24:59;;;;;;;21.98;3.40;;;13.50;99.90;;;;;;4984885;28;20045;-61
2022/11/24 12:27:51;;;;;;;19.85;3.13;;;13.20;99.90;;;;;;4986957;28;20049;-61
2022/11/24 12:30:20;;;;;;;25.38;3.35;;;13.00;99.90;;;;;;4982363;28;20034;-61
2022/11/24 12:33:05;;;;;;;23.35;3.63;;;12.90;99.90;;;;;;4986314;28;20089;-61
2022/11/24 12:35:45;;;;;;;14.18;3.30;;;12.90;99.90;;;;;;4989146;28;20161;-60
2022/11/24 12:38:29;;;;;;;18.05;2.90;;;13.00;99.90;;;;;;4988308;28;20040;-61
2022/11/24 12:41:23;;;;;;;23.17;4.05;;;13.00;99.90;;;;;;4987412;28;20065;-60
2022/11/24 12:43:54;;;;;;;14.63;3.22;;;13.30;99.90;;;;;;4980264;28;20045;-61
2022/11/24 12:47:09;;;;;;;15.45;2.92;;;13.40;99.90;;;;;;5003401;28;20046;-62
2022/11/24 12:49:44;;;;;;;19.05;4.20;;;13.50;99.90;;;;;;5001979;28;20122;-62
2022/11/24 12:52:34;;;;;;;17.73;4.63;;;13.50;99.90;;;;;;5010082;28;20469;-61
2022/11/24 12:55:01;;;;;;;23.85;3.42;;;13.50;99.90;;;;;;5009895;28;20489;-62
2022/11/24 12:57:34;;;;;;;25.35;9.88;;;13.50;99.90;;;;;;5007110;28;20017;-61
2022/11/24 13:00:07;;;;;;;16.98;3.20;;;13.40;99.90;;;;;;5024493;28;20037;-61
2022/11/24 13:03:08;;;;;;;24.45;4.25;;;13.30;99.90;;;;;;5017227;28;20026;-61